0VA5 weather

Coffman Field
Richmond, Virginia, United States

Public forecast

Using degrees Fahrenheit for public forecast. Weather courtesy of forecast.io.

METAR (pilot weather report)

Closest report is Hanover County Municipal Airport, 10.7 nm (19.8 km) E. Retrieved 2019/03/22 06:54 UTC (50 minutes ago):

KOFP 220654Z AUTO 25006KT 10SM FEW055 FEW080 OVC110 08/03 A2964 RMK AO2 SLP036 T00780033

TAF (pilot weather forecast)

Closest forecast is Richmond International Airport, 19.8 nm (36.7 km) SE. Retrieved 2019/03/22 06:46 UTC (58 minutes ago):

TAF KRIC 220544Z 2206/2306 28009G15KT P6SM SCT060 OVC100 FM220900 28009KT P6SM SKC FM221900 27017G30KT P6SM BKN050 FM230000 30014G23KT P6SM FEW250